^^
Grace C. Lehan Memorial Weather Station Historical Data
Daily Summary for April 17, 2021 Units:  English    Metric   Both
Daily Weekly Monthly Yearly
  High: Low: Average:
Temperature: 91.2 °F 71.6 °F 79.4 °F
Dew Point: 79.6 °F 69.3 °F 73.6 °F
Humidity: 95% 63.7% 83%
Wind Speed: 5.1mph 0mph 0.2mph
Wind Gust: 14mph - -
Wind- - SE
Pressure: 30.04 in 29.93 in -
Precipitation: 0.49 in    
 
 
Tabular Data for April 17, 2021
Time Temperature Dew Point Pressure Wind Wind Speed Wind Gust Humidity Rainfall Rate (Hourly) solar
00:09 75 °F 72.5 °F 29.98 in Calm     92% 0.00 in 0 W/m2
00:14 75 °F 72.5 °F 29.98 in Calm     92% 0.00 in 0 W/m2
00:19 74.9 °F 72.4 °F 29.98 in Calm     92% 0.00 in 0 W/m2
00:24 74.9 °F 72.4 °F 29.98 in Calm     92% 0.00 in 0 W/m2
00:29 74.9 °F 72.6 °F 29.98 in Calm     92.4% 0.00 in 0 W/m2
00:34 74.9 °F 72.7 °F 29.98 in Calm     93% 0.00 in 0 W/m2
00:39 74.9 °F 72.7 °F 29.98 in Calm     93% 0.00 in 0 W/m2
00:44 74.9 °F 72.7 °F 29.98 in Calm     92.8% 0.00 in 0 W/m2
00:49 74.8 °F 72.7 °F 29.98 in Calm     93% 0.00 in 0 W/m2
00:54 74.8 °F 72.6 °F 29.98 in Calm     93% 0.00 in 0 W/m2
00:59 74.8 °F 72.6 °F 29.98 in Calm     93% 0.00 in 0 W/m2
01:04 74.8 °F 72.6 °F 29.98 in Calm     93% 0.00 in 0 W/m2
01:09 74.7 °F 72.6 °F 29.98 in Calm     93% 0.00 in 0 W/m2
01:14 74.7 °F 72.5 °F 29.98 in Calm     93% 0.00 in 0 W/m2
01:19 74.6 °F 72.4 °F 29.98 in Calm     93% 0.00 in 0 W/m2
01:24 74.6 °F 72.4 °F 29.97 in Calm     93% 0.00 in 0 W/m2
01:29 74.5 °F 72.3 °F 29.97 in Calm     93% 0.00 in 0 W/m2
01:34 74.4 °F 72.3 °F 29.97 in Calm     93% 0.00 in 0 W/m2
01:39 74.3 °F 72.2 °F 29.97 in Calm     93% 0.00 in 0 W/m2
01:44 74.3 °F 72.1 °F 29.98 in Calm     93% 0.00 in 0 W/m2
01:49 74.2 °F 72.1 °F 29.98 in Calm     93% 0.00 in 0 W/m2
01:54 74.2 °F 72.1 °F 29.98 in Calm     93% 0.00 in 0 W/m2
01:59 74.1 °F 72 °F 29.98 in Calm     93% 0.00 in 0 W/m2
02:04 74.1 °F 71.9 °F 29.98 in Calm     93% 0.00 in 0 W/m2
02:09 74 °F 71.8 °F 29.98 in Calm     93% 0.00 in 0 W/m2
02:14 74 °F 71.8 °F 29.99 in Calm     93% 0.00 in 0 W/m2
02:19 73.9 °F 71.8 °F 29.99 in Calm     93% 0.00 in 0 W/m2
02:24 73.9 °F 71.7 °F 29.99 in Calm     93% 0.00 in 0 W/m2
02:29 73.8 °F 71.8 °F 29.99 in Calm     93.5% 0.00 in 0 W/m2
02:34 73.7 °F 71.9 °F 29.99 in Calm     94% 0.00 in 0 W/m2
02:39 73.7 °F 71.9 °F 29.99 in Calm     94% 0.00 in 0 W/m2
02:44 73.6 °F 71.8 °F 29.99 in Calm     94% 0.00 in 0 W/m2
02:49 73.6 °F 71.7 °F 30.00 in Calm     94% 0.00 in 0 W/m2
02:54 73.5 °F 71.7 °F 30.00 in Calm     94% 0.00 in 0 W/m2
02:59 73.5 °F 71.7 °F 30.00 in Calm     94% 0.00 in 0 W/m2
03:04 73.5 °F 71.7 °F 30.00 in Calm     94% 0.00 in 0 W/m2
03:09 73.5 °F 71.7 °F 30.00 in Calm     94% 0.00 in 0 W/m2
03:14 73.5 °F 71.7 °F 30.00 in Calm     94% 0.00 in 0 W/m2
03:19 73.5 °F 71.7 °F 30.00 in Calm     94% 0.00 in 0 W/m2
03:24 73.5 °F 71.6 °F 30.00 in Calm     94% 0.00 in 0 W/m2
03:29 73.4 °F 71.6 °F 30.00 in Calm     94% 0.00 in 0 W/m2
03:34 73.3 °F 71.5 °F 30.00 in Calm     94% 0.00 in 0 W/m2
03:39 73.3 °F 71.5 °F 30.00 in Calm     94% 0.00 in 0 W/m2
03:44 73.3 °F 71.4 °F 30.00 in Calm     94% 0.00 in 0 W/m2
03:49 73.2 °F 71.4 °F 30.00 in Calm     94% 0.00 in 0 W/m2
03:54 73.2 °F 71.4 °F 30.00 in Calm     94% 0.00 in 0 W/m2
03:59 73.2 °F 71.4 °F 30.00 in Calm     94% 0.00 in 0 W/m2
04:00 73.2 °F 71.4 °F 30.00 in Calm     94% 0.00 in 0 W/m2
04:09 73.1 °F 71.3 °F 30.01 in Calm     94% 0.00 in 0 W/m2
04:14 73.1 °F 71.3 °F 30.01 in Calm     94% 0.00 in 0 W/m2
04:19 73.1 °F 71.3 °F 30.01 in Calm     94.2% 0.00 in 0 W/m2
04:24 73 °F 71.5 °F 30.01 in Calm     94.9% 0.00 in 0 W/m2
04:29 73 °F 71.5 °F 30.01 in Calm     95% 0.00 in 0 W/m2
04:34 73 °F 71.5 °F 30.01 in Calm     95% 0.00 in 0 W/m2
04:39 72.9 °F 71.4 °F 30.01 in Calm     95% 0.00 in 0 W/m2
04:44 72.9 °F 71.4 °F 30.01 in Calm     95% 0.00 in 0 W/m2
04:49 72.9 °F 71.3 °F 30.01 in Calm     94.8% 0.00 in 0 W/m2
04:54 72.8 °F 71 °F 30.01 in Calm     94% 0.00 in 0 W/m2
04:59 72.7 °F 70.9 °F 30.01 in Calm     94% 0.00 in 0 W/m2
05:04 72.7 °F 70.9 °F 30.01 in Calm     94.2% 0.00 in 0 W/m2
05:09 72.6 °F 71.1 °F 30.01 in Calm     95% 0.00 in 0 W/m2
05:14 72.6 °F 71.1 °F 30.01 in Calm     95% 0.00 in 0 W/m2
05:19 72.6 °F 71.1 °F 30.01 in Calm     95% 0.00 in 0 W/m2
05:24 72.6 °F 71.1 °F 30.01 in Calm     95% 0.00 in 0 W/m2
05:29 72.5 °F 71 °F 30.01 in Calm     95% 0.00 in 0 W/m2
05:34 72.4 °F 70.9 °F 30.01 in Calm     95% 0.00 in 0 W/m2
05:39 72.3 °F 70.8 °F 30.02 in Calm     95% 0.00 in 0 W/m2
05:44 72.2 °F 70.7 °F 30.02 in Calm   1 mph 95% 0.00 in 0 W/m2
05:49 72.2 °F 70.7 °F 30.02 in Calm   1 mph 95% 0.00 in 0 W/m2
05:54 72.2 °F 70.7 °F 30.02 in Calm   1 mph 95% 0.00 in 5 W/m2
05:59 72.1 °F 70.6 °F 30.02 in Calm   1 mph 95% 0.00 in 7 W/m2
06:04 72 °F 70.3 °F 30.02 in Calm   1 mph 94.2% 0.00 in 9 W/m2
06:09 71.9 °F 70.1 °F 30.02 in Calm     94% 0.00 in 9 W/m2
06:14 71.7 °F 69.9 °F 30.02 in Calm     94% 0.00 in 16 W/m2
06:19 71.6 °F 69.8 °F 30.02 in Calm     94% 0.00 in 19 W/m2
06:24 71.6 °F 69.8 °F 30.02 in Calm     94% 0.00 in 26 W/m2
06:29 71.6 °F 69.8 °F 30.02 in Calm     94% 0.00 in 32 W/m2
06:34 71.6 °F 69.8 °F 30.02 in Calm     94% 0.00 in 30 W/m2
06:39 71.6 °F 69.8 °F 30.02 in WSW 0.1 mph 2 mph 94% 0.00 in 30 W/m2
06:44 71.6 °F 69.8 °F 30.03 in Calm   2 mph 94% 0.00 in 49 W/m2
06:49 71.7 °F 69.9 °F 30.03 in Calm   2 mph 94% 0.00 in 51 W/m2
06:54 71.8 °F 70 °F 30.03 in Calm   2 mph 94% 0.00 in 65 W/m2
06:59 72 °F 70.2 °F 30.03 in WSW 0.1 mph 2 mph 94% 0.00 in 67 W/m2
07:04 72.1 °F 70 °F 30.03 in NW 0.3 mph 3 mph 93% 0.00 in 46 W/m2
07:09 72.2 °F 69.6 °F 30.03 in North 0.4 mph 4 mph 91.7% 0.00 in 56 W/m2
07:14 72.2 °F 69.4 °F 30.03 in NNE 0.1 mph 4 mph 90.7% 0.00 in 77 W/m2
07:19 72.4 °F 69.3 °F 30.03 in NNE 0.3 mph 4 mph 90% 0.00 in 113 W/m2
07:24 72.7 °F 69.4 °F 30.03 in Calm   4 mph 89.4% 0.00 in 130 W/m2
07:29 73.3 °F 70.2 °F 30.03 in Calm   4 mph 90.2% 0.00 in 257 W/m2
07:34 73.9 °F 70.8 °F 30.03 in Calm   4 mph 90% 0.00 in 265 W/m2
07:39 74.4 °F 70.5 °F 30.03 in NE 0.2 mph 3 mph 87.5% 0.00 in 265 W/m2
07:44 74.9 °F 70.4 °F 30.03 in NE 1 mph 5 mph 85.9% 0.00 in 213 W/m2
07:49 75.1 °F 70.3 °F 30.04 in NW 0.3 mph 7 mph 85% 0.00 in 93 W/m2
07:54 75.1 °F 70.1 °F 30.04 in East 0.1 mph 7 mph 84.4% 0.00 in 77 W/m2
07:59 75 °F 70.1 °F 30.04 in Calm   7 mph 84.9% 0.00 in 274 W/m2
08:00 74.9 °F 70.1 °F 30.04 in Calm   7 mph 85% 0.00 in 274 W/m2
08:09 75.5 °F 70.8 °F 30.04 in Calm     85.4% 0.00 in 359 W/m2
08:14 76.1 °F 71.6 °F 30.04 in NNE 0.4 mph 5 mph 85.8% 0.00 in 380 W/m2
08:19 76.8 °F 71.8 °F 30.04 in North 0.1 mph 5 mph 84.7% 0.00 in 367 W/m2
08:24 77.1 °F 71.6 °F 30.04 in North 0.2 mph 5 mph 83.3% 0.00 in 476 W/m2
08:29 77.3 °F 71.7 °F 30.04 in Calm   5 mph 82.8% 0.00 in 513 W/m2
08:34 77.7 °F 71.9 °F 30.04 in North 0.3 mph 5 mph 82.4% 0.00 in 513 W/m2
08:39 78 °F 72.4 °F 30.04 in North 0.2 mph 3 mph 82.9% 0.00 in 367 W/m2
08:44 78.1 °F 72.3 °F 30.04 in North 0.1 mph 3 mph 82.3% 0.00 in 387 W/m2
08:49 78.4 °F 72.6 °F 30.04 in North 0.1 mph 3 mph 82.6% 0.00 in 343 W/m2
08:54 78.5 °F 72.5 °F 30.04 in Calm   3 mph 81.8% 0.00 in 381 W/m2
08:59 78.6 °F 72.7 °F 30.04 in Calm   3 mph 82.1% 0.00 in 519 W/m2
09:04 78.7 °F 72.6 °F 30.04 in North 0.1 mph 3 mph 81.4% 0.00 in 399 W/m2
09:09 78.9 °F 72.5 °F 30.04 in NE 0.7 mph 4 mph 80.8% 0.00 in 489 W/m2
09:14 79 °F 72.5 °F 30.04 in East 0.6 mph 4 mph 80.5% 0.00 in 594 W/m2
09:19 79.4 °F 73.3 °F 30.04 in Calm   4 mph 81.6% 0.00 in 610 W/m2
09:24 80.2 °F 74.1 °F 30.04 in Calm   4 mph 81.7% 0.00 in 619 W/m2
09:29 80.8 °F 73.3 °F 30.04 in East 0.9 mph 4 mph 77.9% 0.00 in 635 W/m2
09:34 81 °F 73.7 °F 30.04 in Calm   4 mph 78.3% 0.00 in 200 W/m2
09:39 81 °F 73.3 °F 30.04 in Calm     77.7% 0.00 in 216 W/m2
09:44 80.8 °F 73.2 °F 30.04 in Calm   1 mph 77.7% 0.00 in 561 W/m2
09:49 80.7 °F 73.9 °F 30.04 in Calm   1 mph 79.6% 0.00 in 773 W/m2
09:54 81.1 °F 73.8 °F 30.04 in Calm   2 mph 78.7% 0.00 in 773 W/m2
09:59 81.5 °F 74.3 °F 30.04 in East 0.7 mph 4 mph 78.7% 0.00 in 722 W/m2
10:04 82 °F 74.9 °F 30.04 in Calm   4 mph 79.1% 0.00 in 722 W/m2
10:09 82.6 °F 74.4 °F 30.04 in Calm     76.4% 0.00 in 712 W/m2
10:14 83 °F 74.5 °F 30.04 in Calm     75.6% 0.00 in 737 W/m2
10:19 83.1 °F 74.5 °F 30.04 in Calm     75.4% 0.00 in 745 W/m2
10:24 83.5 °F 75.6 °F 30.04 in Calm     77% 0.00 in 745 W/m2
10:29 83.9 °F 75.3 °F 30.03 in Calm     75.6% 0.00 in 772 W/m2
10:34 84.3 °F 75.3 °F 30.04 in East 1.1 mph 4 mph 74.4% 0.00 in 773 W/m2
10:39 85.1 °F 75.8 °F 30.04 in East 0.3 mph 4 mph 73.8% 0.00 in 793 W/m2
10:44 85.5 °F 75.6 °F 30.04 in Calm   4 mph 72.5% 0.00 in 953 W/m2
10:49 85.8 °F 75.5 °F 30.03 in Calm   4 mph 71.5% 0.00 in 953 W/m2
10:54 85.7 °F 75.2 °F 30.03 in Calm   4 mph 70.9% 0.00 in 403 W/m2
10:59 85.6 °F 75.6 °F 30.03 in East 0.1 mph 4 mph 72.2% 0.00 in 914 W/m2
11:04 85.8 °F 75.6 °F 30.03 in Calm   4 mph 71.7% 0.00 in 914 W/m2
11:09 85.8 °F 74.9 °F 30.03 in East 0.4 mph 2 mph 70% 0.00 in 870 W/m2
11:14 85.7 °F 76 °F 30.03 in East 0.3 mph 2 mph 72.9% 0.00 in 849 W/m2
11:19 86.2 °F 76.4 °F 30.03 in East 0.3 mph 3 mph 72.6% 0.00 in 824 W/m2
11:24 86.5 °F 76.1 °F 30.03 in Calm   3 mph 71.2% 0.00 in 823 W/m2
11:29 86.8 °F 76.7 °F 30.03 in East 1.1 mph 3 mph 71.9% 0.00 in 826 W/m2
11:34 87.2 °F 76.9 °F 30.03 in East 0.1 mph 3 mph 71.6% 0.00 in 898 W/m2
11:39 87.2 °F 76.5 °F 30.03 in Calm   1 mph 70.7% 0.00 in 844 W/m2
11:44 87.2 °F 76.1 °F 30.03 in East 0.1 mph 3 mph 69.9% 0.00 in 844 W/m2
11:49 87.4 °F 76.6 °F 30.03 in Calm   3 mph 70.5% 0.00 in 719 W/m2
11:54 87.7 °F 77.1 °F 30.03 in East 0.1 mph 3 mph 71% 0.00 in 937 W/m2
11:59 88.4 °F 78.5 °F 30.03 in East 0.3 mph 3 mph 72.8% 0.00 in 875 W/m2
12:00 88.7 °F 77.2 °F 30.02 in Calm   3 mph 69% 0.00 in 874 W/m2
12:09 89.2 °F 76.7 °F 30.02 in East 1.1 mph 4 mph 66.9% 0.00 in 888 W/m2
12:14 89.2 °F 77 °F 30.02 in SSE 0.5 mph 5 mph 67.3% 0.00 in 896 W/m2
12:19 89.4 °F 76.7 °F 30.02 in West 0.4 mph 5 mph 66.2% 0.00 in 895 W/m2
12:24 89.4 °F 75.9 °F 30.02 in WNW 0.3 mph 5 mph 64.8% 0.00 in 902 W/m2
12:29 89.6 °F 77.7 °F 30.01 in WNW 0.2 mph 5 mph 68.3% 0.00 in 900 W/m2
12:34 89.7 °F 76.6 °F 30.01 in NW 0.3 mph 5 mph 65.5% 0.00 in 900 W/m2
12:39 89.6 °F 76.9 °F 30.01 in NNE 0.2 mph 2 mph 66.3% 0.00 in 904 W/m2
12:44 89.8 °F 77.4 °F 30.01 in NNE 0.3 mph 3 mph 67.1% 0.00 in 932 W/m2
12:49 89.8 °F 76 °F 30.01 in NNE 0.2 mph 3 mph 63.9% 0.00 in 974 W/m2
12:54 89.9 °F 76.5 °F 30.01 in NE 0.8 mph 3 mph 64.9% 0.00 in 932 W/m2
12:59 90 °F 76.7 °F 30.01 in NE 0.1 mph 3 mph 65.1% 0.00 in 967 W/m2
13:04 90.3 °F 77.3 °F 30.00 in NE 0.4 mph 3 mph 65.8% 0.00 in 953 W/m2
13:09 90.6 °F 77.3 °F 30.00 in NE 0.4 mph 4 mph 65.1% 0.00 in 916 W/m2
13:14 91 °F 77.1 °F 30.00 in NE 0.1 mph 4 mph 64% 0.00 in 928 W/m2
13:19 91.2 °F 77.9 °F 30.00 in NE 0.5 mph 4 mph 65.3% 0.00 in 991 W/m2
13:24 91.2 °F 77.5 °F 30.00 in NE 0.2 mph 4 mph 64.3% 0.00 in 991 W/m2
13:29 90.9 °F 76.9 °F 30.00 in Calm   4 mph 63.7% 0.00 in 309 W/m2
13:34 90.6 °F 77.2 °F 30.00 in NE 0.2 mph 4 mph 64.9% 0.00 in 967 W/m2
13:39 90.3 °F 76.9 °F 29.99 in Calm   2 mph 64.8% 0.00 in 250 W/m2
13:44 90 °F 76.4 °F 29.99 in NE 0.1 mph 3 mph 64.5% 0.00 in 171 W/m2
13:49 89.6 °F 76.9 °F 29.99 in NE 0.2 mph 3 mph 66.2% 0.00 in 171 W/m2
13:54 89.4 °F 76.9 °F 29.99 in NE 0.4 mph 3 mph 66.7% 0.00 in 183 W/m2
13:59 89.3 °F 77.3 °F 29.98 in NE 0.2 mph 3 mph 67.8% 0.00 in 251 W/m2
14:04 89.4 °F 77.4 °F 29.98 in Calm   3 mph 67.9% 0.00 in 958 W/m2
14:09 89.7 °F 77.3 °F 29.98 in Calm     67.1% 0.00 in 958 W/m2
14:14 90 °F 77.3 °F 29.98 in Calm     66.3% 0.00 in 993 W/m2
14:19 90.1 °F 77.2 °F 29.98 in Calm   1 mph 65.8% 0.00 in 997 W/m2
14:24 90.2 °F 77.8 °F 29.97 in Calm   1 mph 67% 0.00 in 248 W/m2
14:29 90.3 °F 77.9 °F 29.97 in Calm   1 mph 67.2% 0.00 in 146 W/m2
14:34 90.2 °F 77.5 °F 29.97 in Calm   1 mph 66.5% 0.00 in 146 W/m2
14:39 90 °F 77.1 °F 29.97 in Calm   1 mph 66% 0.00 in 77 W/m2
14:44 89.7 °F 77.2 °F 29.97 in Calm   1 mph 66.9% 0.00 in 72 W/m2
14:49 89.5 °F 77.6 °F 29.96 in Calm   1 mph 68.1% 0.00 in 225 W/m2
14:54 89.4 °F 77.9 °F 29.96 in Calm   1 mph 68.9% 0.00 in 301 W/m2
14:59 89.4 °F 77.8 °F 29.96 in NE 0.1 mph 2 mph 68.7% 0.00 in 809 W/m2
15:04 89.6 °F 77.4 °F 29.95 in NNE 1.4 mph 5 mph 67.5% 0.00 in 596 W/m2
15:09 89.7 °F 77.3 °F 29.95 in SW 0.7 mph 5 mph 67.2% 0.00 in 596 W/m2
15:14 89.5 °F 76.7 °F 29.95 in SW 0.1 mph 5 mph 66.1% 0.00 in 234 W/m2
15:19 89.4 °F 77.3 °F 29.95 in Calm   5 mph 67.8% 0.00 in 554 W/m2
15:24 89.5 °F 78.7 °F 29.95 in Calm   5 mph 70.8% 0.00 in 348 W/m2
15:29 89.5 °F 78.3 °F 29.95 in SW 0.3 mph 5 mph 69.8% 0.00 in 828 W/m2
15:34 89.7 °F 79.6 °F 29.95 in WNW 2.4 mph 9 mph 72.2% 0.00 in 830 W/m2
15:39 89.4 °F 79 °F 29.95 in NW 3.3 mph 11 mph 71.6% 0.00 in 213 W/m2
15:44 88.6 °F 78.7 °F 29.94 in NNW 1.5 mph 11 mph 72.8% 0.00 in 95 W/m2
15:49 87.7 °F 78.3 °F 29.93 in NW 1.4 mph 11 mph 73.9% 0.00 in 83 W/m2
15:54 86.8 °F 77.2 °F 29.93 in NW 0.1 mph 11 mph 73.2% 0.00 in 81 W/m2
15:59 86.2 °F 77.4 °F 29.94 in Calm   11 mph 74.9% 0.00 in 69 W/m2
16:00 86 °F 77.6 °F 29.94 in Calm   11 mph 76% 0.00 in 56 W/m2
16:09 85.1 °F 76.9 °F 29.95 in NW 0.1 mph 2 mph 76.5% 0.00 in 35 W/m2
16:14 84.7 °F 76.7 °F 29.95 in Calm   2 mph 77.2% 0.00 in 14 W/m2
16:19 84.3 °F 76.9 °F 29.95 in WSW 1.5 mph 7 mph 78.6% 0.00 in 11 W/m2
16:24 83.6 °F 76.5 °F 29.95 in WSW 3.4 mph 9 mph 79.2% 0.03 in 9 W/m2
16:29 82.5 °F 75.6 °F 29.95 in West 5.1 mph 14 mph 79.6% 0.17 in 5 W/m2
16:34 80.5 °F 73.7 °F 29.96 in West 1.8 mph 14 mph 79.9% 0.30 in 5 W/m2
16:39 79 °F 73.3 °F 29.96 in West 1 mph 9 mph 82.6% 0.37 in 5 W/m2
16:44 78 °F 73.1 °F 29.96 in WNW 2.6 mph 9 mph 84.8% 0.44 in 5 W/m2
16:49 76.9 °F 72.4 °F 29.96 in West 4.4 mph 13 mph 86.1% 0.45 in 5 W/m2
16:54 76 °F 72 °F 29.96 in West 2.3 mph 13 mph 87.3% 0.46 in 5 W/m2
16:59 75.4 °F 71.8 °F 29.96 in Calm   13 mph 88.4% 0.47 in 7 W/m2
17:04 75.2 °F 71.9 °F 29.95 in Calm   13 mph 89.7% 0.47 in 7 W/m2
17:09 75 °F 72.1 °F 29.95 in Calm   1 mph 90.7% 0.47 in 7 W/m2
17:14 75 °F 72.4 °F 29.94 in Calm   1 mph 91.5% 0.47 in 7 W/m2
17:19 74.9 °F 72.4 °F 29.94 in Calm   1 mph 92% 0.48 in 7 W/m2
17:20 74.9 °F 72.4 °F 29.94 in Calm   1 mph 92% 0.48 in 7 W/m2
17:30 74.7 °F 72.2 °F 29.96 in Calm   1 mph 92% 0.01 in 8 W/m2
18:00 75 °F 73.2 °F 29.97 in Calm     94% 0.00 in 28 W/m2
18:30 75.4 °F 73.6 °F 29.97 in Calm   5 mph 94% 0.00 in 34 W/m2
19:00 75.7 °F 74.2 °F 29.98 in Calm     95% 0.01 in 32 W/m2
19:30 75.7 °F 74.2 °F 29.99 in Calm   2 mph 95% 0.00 in 23 W/m2
20:04 74.9 °F 73.1 °F 29.98 in Calm     94% 0.47 in 0 W/m2
20:09 74.9 °F 73 °F 29.98 in Calm     94% 0.47 in 0 W/m2
20:14 74.9 °F 73.1 °F 29.98 in ENE 0.2 mph 5 mph 94% 0.47 in 0 W/m2
20:19 74.8 °F 73 °F 29.98 in Calm   5 mph 94% 0.47 in 0 W/m2
20:23 74.8 °F 73 °F 29.98 in Calm   5 mph 94% 0.47 in 0 W/m2
Hartford County Weather
Compliments of Weather Underground - 4 mb